createdAt,value
2018-12-15T00:00:13.370Z,0.60
2018-12-15T00:02:41.632Z,0.60
2018-12-15T00:05:09.806Z,0.50
2018-12-15T00:07:37.850Z,0.50
2018-12-15T00:10:06.258Z,0.60
2018-12-15T00:12:34.315Z,0.50
2018-12-15T00:15:02.493Z,0.60
2018-12-15T00:17:30.592Z,0.20
2018-12-15T00:19:58.649Z,0.50
2018-12-15T00:22:26.705Z,0.60
2018-12-15T00:24:54.785Z,0.50
2018-12-15T00:27:22.861Z,0.50
2018-12-15T00:29:50.925Z,0.50
2018-12-15T00:32:19.028Z,0.50
2018-12-15T00:34:47.126Z,0.50
2018-12-15T00:37:15.312Z,0.50
2018-12-15T00:39:43.341Z,0.60
2018-12-15T00:42:11.642Z,0.60
2018-12-15T00:44:39.734Z,0.50
2018-12-15T00:47:13.587Z,0.50
2018-12-15T00:49:37.924Z,0.50
2018-12-15T00:52:05.995Z,0.60
2018-12-15T00:54:34.024Z,0.60
2018-12-15T00:57:02.217Z,0.60
2018-12-15T00:59:30.241Z,0.50
2018-12-15T01:01:58.358Z,0.50
2018-12-15T01:04:26.424Z,0.50
2018-12-15T01:06:54.502Z,0.50
2018-12-15T01:09:22.862Z,0.50
2018-12-15T01:11:50.934Z,0.50
2018-12-15T01:14:18.987Z,0.50
2018-12-15T01:16:47.210Z,0.50
2018-12-15T01:19:15.266Z,0.50
2018-12-15T01:21:43.374Z,0.50
2018-12-15T01:24:11.468Z,0.50
2018-12-15T01:26:39.642Z,0.50
2018-12-15T01:29:07.692Z,0.50
2018-12-15T01:31:35.890Z,0.50
2018-12-15T01:34:03.931Z,0.50
2018-12-15T01:36:32.038Z,0.50
2018-12-15T01:39:00.077Z,0.50
2018-12-15T01:41:28.156Z,0.50
2018-12-15T01:43:56.235Z,0.50
2018-12-15T01:46:24.315Z,0.50
2018-12-15T01:48:52.377Z,0.50
2018-12-15T01:51:20.449Z,0.50
2018-12-15T01:53:48.549Z,0.50
2018-12-15T01:56:16.624Z,0.50
2018-12-15T01:58:44.720Z,0.50
2018-12-15T02:01:12.775Z,0.40
2018-12-15T02:03:40.882Z,0.50
2018-12-15T02:06:08.990Z,0.40
2018-12-15T02:08:37.161Z,0.40
2018-12-15T02:11:05.334Z,0.40
2018-12-15T02:13:33.565Z,0.40
2018-12-15T02:16:01.738Z,0.40
2018-12-15T02:18:29.778Z,0.40
2018-12-15T02:20:57.835Z,0.40
2018-12-15T02:23:25.918Z,0.40
2018-12-15T02:25:53.979Z,0.40
2018-12-15T02:28:22.049Z,0.40
2018-12-15T02:30:50.112Z,0.40
2018-12-15T02:33:18.199Z,0.40
2018-12-15T02:35:46.343Z,0.50
2018-12-15T02:38:14.498Z,0.50
2018-12-15T02:40:42.630Z,0.40
2018-12-15T02:43:10.704Z,0.40
2018-12-15T02:45:38.830Z,0.40
2018-12-15T02:48:06.917Z,0.40
2018-12-15T02:50:34.982Z,1.30
2018-12-15T02:53:03.055Z,0.40
2018-12-15T02:55:31.664Z,0.40
2018-12-15T02:57:59.712Z,0.40
2018-12-15T03:00:27.866Z,0.40
2018-12-15T03:02:55.980Z,0.40
2018-12-15T03:05:24.025Z,0.40
2018-12-15T03:07:52.103Z,0.50
2018-12-15T03:10:20.236Z,0.40
2018-12-15T03:12:48.380Z,0.40
2018-12-15T03:15:16.479Z,0.40
2018-12-15T03:17:48.898Z,0.40
2018-12-15T03:20:14.574Z,0.40
2018-12-15T03:22:42.622Z,0.40
2018-12-15T03:25:10.697Z,0.40
2018-12-15T03:27:38.782Z,0.40
2018-12-15T03:30:07.048Z,0.40
2018-12-15T03:32:35.201Z,0.40
2018-12-15T03:35:03.420Z,0.40
2018-12-15T03:37:31.681Z,0.40
2018-12-15T03:39:59.727Z,0.40
2018-12-15T03:42:27.799Z,0.40
2018-12-15T03:44:55.955Z,0.40
2018-12-15T03:47:24.025Z,0.40
2018-12-15T03:49:52.102Z,0.40
2018-12-15T03:52:20.145Z,0.40
2018-12-15T03:54:48.212Z,0.40
2018-12-15T03:57:16.316Z,0.40
2018-12-15T03:59:44.650Z,0.40
2018-12-15T04:02:13.056Z,0.40
2018-12-15T04:04:41.443Z,0.40
2018-12-15T04:07:09.493Z,0.40
2018-12-15T04:09:37.587Z,0.40
2018-12-15T04:12:05.612Z,0.40
2018-12-15T04:14:33.920Z,0.40
2018-12-15T04:17:02.100Z,0.40
2018-12-15T04:19:30.140Z,0.40
2018-12-15T04:24:53.692Z,0.40
2018-12-15T04:27:21.779Z,0.30
2018-12-15T04:29:49.925Z,0.40
2018-12-15T04:32:24.550Z,0.30
2018-12-15T04:34:52.621Z,0.30
2018-12-15T04:37:20.691Z,0.30
2018-12-15T04:39:48.826Z,0.30
2018-12-15T04:42:17.267Z,0.30
2018-12-15T04:44:45.369Z,0.30
2018-12-15T04:47:14.045Z,0.30
2018-12-15T04:49:42.075Z,0.30
2018-12-15T04:52:10.218Z,0.30
2018-12-15T04:54:38.336Z,0.30
2018-12-15T04:57:06.491Z,0.30
2018-12-15T04:59:34.583Z,0.30
2018-12-15T05:02:02.823Z,0.30
2018-12-15T05:04:30.924Z,0.30
2018-12-15T05:06:59.019Z,0.30
2018-12-15T05:09:27.156Z,0.30
2018-12-15T05:11:55.275Z,0.30
2018-12-15T05:14:23.385Z,0.30
2018-12-15T05:16:51.493Z,0.30
2018-12-15T05:19:19.587Z,0.30
2018-12-15T05:21:47.657Z,0.30
2018-12-15T05:24:15.725Z,0.30
2018-12-15T05:26:43.804Z,0.30
2018-12-15T05:29:11.869Z,0.30
2018-12-15T05:31:39.931Z,0.30
2018-12-15T05:34:08.086Z,0.30
2018-12-15T05:36:36.214Z,0.30
2018-12-15T05:39:05.716Z,0.30
2018-12-15T05:41:33.825Z,0.30
2018-12-15T05:44:01.948Z,0.40
2018-12-15T05:46:30.003Z,0.40
2018-12-15T05:48:58.074Z,0.40
2018-12-15T05:51:26.141Z,0.30
2018-12-15T05:53:54.239Z,0.30
2018-12-15T05:56:22.300Z,0.30
2018-12-15T05:58:50.388Z,0.30
2018-12-15T06:01:18.443Z,0.30
2018-12-15T06:03:46.533Z,0.30
2018-12-15T06:06:14.582Z,0.30
2018-12-15T06:08:43.135Z,0.30
2018-12-15T06:11:11.222Z,0.30
2018-12-15T06:13:39.295Z,0.30
2018-12-15T06:16:07.369Z,0.30
2018-12-15T06:18:35.429Z,0.30
2018-12-15T06:21:03.576Z,0.30
2018-12-15T06:23:31.748Z,0.30
2018-12-15T06:25:59.908Z,0.30
2018-12-15T06:28:27.988Z,0.30
2018-12-15T06:30:56.334Z,0.30
2018-12-15T06:33:24.415Z,0.30
2018-12-15T06:35:52.481Z,0.30
2018-12-15T06:38:20.627Z,0.30
2018-12-15T06:40:48.657Z,0.30
2018-12-15T06:43:17.075Z,0.30
2018-12-15T06:45:45.931Z,0.30
2018-12-15T06:48:13.963Z,0.30
2018-12-15T06:50:42.081Z,0.30
2018-12-15T06:53:10.135Z,0.30
2018-12-15T06:55:38.195Z,0.30
2018-12-15T06:58:06.273Z,0.30
2018-12-15T07:00:34.435Z,0.30
2018-12-15T07:03:02.487Z,0.30
2018-12-15T07:05:30.571Z,0.30
2018-12-15T07:07:58.635Z,0.30
2018-12-15T07:10:26.750Z,0.30
2018-12-15T07:12:54.866Z,0.30
2018-12-15T07:15:22.939Z,0.30
2018-12-15T07:17:51.011Z,0.30
2018-12-15T07:20:19.081Z,0.30
2018-12-15T07:22:47.132Z,0.40
2018-12-15T07:25:15.244Z,0.30
2018-12-15T07:27:43.339Z,0.40
2018-12-15T07:30:11.563Z,0.40
2018-12-15T07:32:39.583Z,0.40
2018-12-15T07:35:07.657Z,0.40
2018-12-15T07:37:35.722Z,0.40
2018-12-15T07:40:04.613Z,0.40
2018-12-15T07:42:32.657Z,0.40
2018-12-15T07:45:00.795Z,0.40
2018-12-15T07:47:29.009Z,0.40
2018-12-15T07:49:57.050Z,0.40
2018-12-15T07:52:25.378Z,0.50
2018-12-15T07:54:53.470Z,0.50
2018-12-15T07:57:21.546Z,0.50
2018-12-15T07:59:49.596Z,0.50
2018-12-15T08:02:17.650Z,0.50
2018-12-15T08:04:45.724Z,0.50
2018-12-15T08:07:14.060Z,0.50
2018-12-15T08:09:42.270Z,0.60
2018-12-15T08:12:16.215Z,0.50
2018-12-15T08:14:44.393Z,0.60
2018-12-15T08:17:12.477Z,0.60
2018-12-15T08:19:40.660Z,0.60
2018-12-15T08:22:08.826Z,0.60
2018-12-15T08:24:36.868Z,0.60
2018-12-15T08:27:04.954Z,0.70
2018-12-15T08:29:33.010Z,0.70
2018-12-15T08:32:01.084Z,0.70
2018-12-15T08:34:29.128Z,0.70
2018-12-15T08:36:57.292Z,0.80
2018-12-15T08:39:25.376Z,0.80
2018-12-15T08:41:53.419Z,0.80
2018-12-15T08:44:21.493Z,0.80
2018-12-15T08:46:49.581Z,0.80
2018-12-15T08:49:17.642Z,0.90
2018-12-15T08:51:45.704Z,0.80
2018-12-15T08:54:13.747Z,0.90
2018-12-15T08:56:41.898Z,0.90
2018-12-15T08:59:10.023Z,0.90
2018-12-15T09:01:38.205Z,0.90
2018-12-15T09:04:06.224Z,1.50
2018-12-15T09:06:34.348Z,0.90
2018-12-15T09:09:02.423Z,0.90
2018-12-15T09:11:30.558Z,0.90
2018-12-15T09:13:58.700Z,0.90
2018-12-15T09:16:26.929Z,1.00
2018-12-15T09:18:55.067Z,1.00
2018-12-15T09:21:23.128Z,1.00
2018-12-15T09:23:51.215Z,1.00
2018-12-15T09:26:19.293Z,1.00
2018-12-15T09:28:47.357Z,1.00
2018-12-15T09:31:15.468Z,1.00
2018-12-15T09:33:43.539Z,1.00
2018-12-15T09:36:11.774Z,1.00
2018-12-15T09:38:52.146Z,1.00
2018-12-15T09:41:20.304Z,1.10
2018-12-15T09:43:48.380Z,1.00
2018-12-15T09:46:16.536Z,1.10
2018-12-15T09:48:44.652Z,1.10
2018-12-15T09:51:12.722Z,1.10
2018-12-15T09:53:40.768Z,1.10
2018-12-15T09:56:08.862Z,1.10
2018-12-15T09:58:36.949Z,1.10
2018-12-15T10:01:05.109Z,1.10
2018-12-15T10:03:33.197Z,1.20
2018-12-15T10:06:01.377Z,1.20
2018-12-15T10:08:29.446Z,1.20
2018-12-15T10:10:57.517Z,1.20
2018-12-15T10:13:25.555Z,1.20
2018-12-15T10:15:53.834Z,1.20
2018-12-15T10:18:21.998Z,1.20
2018-12-15T10:20:50.070Z,1.20
2018-12-15T10:23:18.143Z,1.20
2018-12-15T10:25:46.213Z,1.20
2018-12-15T10:28:15.087Z,1.20
2018-12-15T10:30:49.019Z,1.20
2018-12-15T10:33:17.181Z,1.20
2018-12-15T10:35:45.230Z,1.20
2018-12-15T10:38:13.357Z,1.20
2018-12-15T10:40:41.453Z,1.20
2018-12-15T10:43:09.565Z,1.20
2018-12-15T10:45:37.635Z,1.20
2018-12-15T10:48:05.713Z,1.20
2018-12-15T10:50:33.732Z,1.20
2018-12-15T10:53:01.819Z,1.10
2018-12-15T10:55:29.889Z,1.20
2018-12-15T10:57:58.064Z,1.20
2018-12-15T11:03:24.135Z,1.20
2018-12-15T11:05:52.158Z,1.20
2018-12-15T11:08:20.269Z,1.20
2018-12-15T11:10:48.320Z,1.20
2018-12-15T11:13:16.420Z,1.30
2018-12-15T11:15:44.471Z,1.20
2018-12-15T11:18:12.648Z,1.20
2018-12-15T11:20:40.719Z,1.30
2018-12-15T11:23:08.873Z,1.30
2018-12-15T11:25:36.909Z,1.30
2018-12-15T11:28:05.007Z,1.30
2018-12-15T11:30:33.084Z,1.20
2018-12-15T11:33:01.252Z,1.20
2018-12-15T11:35:29.324Z,1.20
2018-12-15T11:37:57.398Z,1.20
2018-12-15T11:40:25.443Z,1.20
2018-12-15T11:42:53.502Z,1.20
2018-12-15T11:45:21.643Z,1.20
2018-12-15T11:47:49.707Z,1.20
2018-12-15T11:50:17.884Z,1.20
2018-12-15T11:52:45.940Z,1.20
2018-12-15T11:55:13.998Z,1.20
2018-12-15T11:57:42.131Z,1.20
2018-12-15T12:00:10.581Z,1.20
2018-12-15T12:02:38.661Z,1.20
2018-12-15T12:05:06.862Z,1.20
2018-12-15T12:07:34.989Z,1.20
2018-12-15T12:10:03.264Z,1.20
2018-12-15T12:12:31.938Z,1.20
2018-12-15T12:15:00.184Z,1.20
2018-12-15T12:17:28.284Z,1.20
2018-12-15T12:19:56.348Z,1.20
2018-12-15T12:22:24.446Z,1.20
2018-12-15T12:24:52.619Z,1.20
2018-12-15T12:27:20.676Z,1.20
2018-12-15T12:29:48.763Z,1.20
2018-12-15T12:32:17.575Z,1.20
2018-12-15T12:34:45.651Z,1.20
2018-12-15T12:37:13.831Z,1.20
2018-12-15T12:39:41.967Z,1.20
2018-12-15T12:42:10.036Z,1.10
2018-12-15T12:44:38.223Z,1.10
2018-12-15T12:47:06.295Z,1.10
2018-12-15T12:49:34.365Z,1.20
2018-12-15T12:52:02.438Z,1.10
2018-12-15T12:54:30.574Z,1.10
2018-12-15T12:56:58.608Z,1.20
2018-12-15T12:59:26.686Z,1.10
2018-12-15T13:01:54.789Z,1.10
2018-12-15T13:04:22.903Z,1.10
2018-12-15T13:06:51.479Z,1.10
2018-12-15T13:09:19.643Z,1.20
2018-12-15T13:11:47.715Z,1.10
2018-12-15T13:14:15.810Z,1.10
2018-12-15T13:16:43.839Z,1.10
2018-12-15T13:19:11.964Z,1.20
2018-12-15T13:21:39.999Z,1.20
2018-12-15T13:24:08.091Z,1.20
2018-12-15T13:26:36.174Z,1.20
2018-12-15T13:29:04.317Z,1.20
2018-12-15T13:31:32.491Z,1.20
2018-12-15T13:34:00.518Z,1.20
2018-12-15T13:36:28.599Z,1.20
2018-12-15T13:38:56.696Z,1.20
2018-12-15T13:41:24.813Z,1.20
2018-12-15T13:43:52.895Z,1.20
2018-12-15T13:46:20.991Z,1.20
2018-12-15T13:48:49.050Z,1.20
2018-12-15T13:51:17.159Z,1.20
2018-12-15T13:53:45.323Z,1.20
2018-12-15T13:56:13.385Z,1.10
2018-12-15T13:58:41.455Z,1.10
2018-12-15T14:01:09.546Z,1.10
2018-12-15T14:03:37.622Z,1.10
2018-12-15T14:06:05.757Z,1.10
2018-12-15T14:08:33.826Z,1.10
2018-12-15T14:11:02.209Z,1.00
2018-12-15T14:13:30.246Z,1.00
2018-12-15T14:15:58.308Z,1.00
2018-12-15T14:18:26.377Z,0.90
2018-12-15T14:20:54.463Z,1.00
2018-12-15T14:23:22.594Z,1.00
2018-12-15T14:25:50.634Z,0.90
2018-12-15T14:28:18.840Z,0.90
2018-12-15T14:30:46.867Z,0.90
2018-12-15T14:33:14.998Z,0.90
2018-12-15T14:35:43.061Z,0.90
2018-12-15T14:38:11.242Z,0.90
2018-12-15T14:40:39.432Z,0.90
2018-12-15T14:43:07.557Z,0.80
2018-12-15T14:45:35.600Z,0.90
2018-12-15T14:48:03.745Z,0.80
2018-12-15T14:50:31.971Z,0.80
2018-12-15T14:53:00.004Z,0.80
2018-12-15T14:55:28.100Z,0.70
2018-12-15T14:57:56.282Z,0.70
2018-12-15T15:00:24.454Z,0.70
2018-12-15T15:02:52.536Z,0.70
2018-12-15T15:05:20.605Z,0.70
2018-12-15T15:07:48.675Z,0.70
2018-12-15T15:10:16.871Z,0.70
2018-12-15T15:12:44.960Z,0.70
2018-12-15T15:15:13.026Z,0.70
2018-12-15T15:17:41.096Z,0.60
2018-12-15T15:20:09.705Z,0.60
2018-12-15T15:22:37.794Z,0.60
2018-12-15T15:25:06.832Z,0.60
2018-12-15T15:27:34.977Z,0.60
2018-12-15T15:30:04.749Z,0.60
2018-12-15T15:32:33.163Z,-0.20
2018-12-15T15:35:01.220Z,0.60
2018-12-15T15:37:29.315Z,0.60
2018-12-15T15:39:57.487Z,0.60
2018-12-15T15:42:25.529Z,0.60
2018-12-15T15:44:53.731Z,0.60
2018-12-15T15:47:21.761Z,0.60
2018-12-15T15:49:49.879Z,0.60
2018-12-15T15:52:18.054Z,0.60
2018-12-15T15:54:46.127Z,0.60
2018-12-15T15:57:14.167Z,0.60
2018-12-15T15:59:42.370Z,0.60
2018-12-15T16:02:10.467Z,0.60
2018-12-15T16:04:38.562Z,0.60
2018-12-15T16:07:06.623Z,0.60
2018-12-15T16:09:34.817Z,0.60
2018-12-15T16:12:02.892Z,0.60
2018-12-15T16:14:30.951Z,0.60
2018-12-15T16:16:59.017Z,0.60
2018-12-15T16:19:27.089Z,0.50
2018-12-15T16:21:55.460Z,0.50
2018-12-15T16:24:23.596Z,0.50
2018-12-15T16:26:51.679Z,0.60
2018-12-15T16:29:19.791Z,0.60
2018-12-15T16:31:47.909Z,0.60
2018-12-15T16:34:15.981Z,0.60
2018-12-15T16:36:44.023Z,0.60
2018-12-15T16:39:12.127Z,0.60
2018-12-15T16:41:42.376Z,0.50
2018-12-15T16:44:10.244Z,0.50
2018-12-15T16:46:38.422Z,0.50
2018-12-15T16:49:06.479Z,0.50
2018-12-15T16:51:34.786Z,0.50
2018-12-15T16:54:02.915Z,0.50
2018-12-15T16:56:30.956Z,0.50
2018-12-15T16:58:59.065Z,0.50
2018-12-15T17:01:27.256Z,0.50
2018-12-15T17:03:55.310Z,0.50
2018-12-15T17:06:23.385Z,0.50
2018-12-15T17:08:51.445Z,0.50
2018-12-15T17:11:19.587Z,0.40
2018-12-15T17:13:47.719Z,0.50
2018-12-15T17:16:15.767Z,0.50
2018-12-15T17:18:43.817Z,0.50
2018-12-15T17:21:11.893Z,0.50
2018-12-15T17:23:40.008Z,0.50
2018-12-15T17:26:08.284Z,0.50
2018-12-15T17:28:36.311Z,0.50
2018-12-15T17:31:04.382Z,0.50
2018-12-15T17:33:32.472Z,0.50
2018-12-15T17:36:00.541Z,0.40
2018-12-15T17:38:28.700Z,0.40
2018-12-15T17:40:56.745Z,0.40
2018-12-15T17:43:24.818Z,0.40
2018-12-15T17:45:52.892Z,0.40
2018-12-15T17:48:20.986Z,0.40
2018-12-15T17:50:49.048Z,0.40
2018-12-15T17:53:17.133Z,0.40
2018-12-15T17:55:45.259Z,0.40
2018-12-15T17:58:14.793Z,0.40
2018-12-15T18:00:43.789Z,0.40
2018-12-15T18:03:11.854Z,0.40
2018-12-15T18:05:39.937Z,0.40
2018-12-15T18:08:08.472Z,0.40
2018-12-15T18:10:36.607Z,0.40
2018-12-15T18:13:04.635Z,0.40
2018-12-15T18:15:32.762Z,0.40
2018-12-15T18:18:00.938Z,0.30
2018-12-15T18:20:29.008Z,0.30
2018-12-15T18:22:57.103Z,0.40
2018-12-15T18:25:25.230Z,0.40
2018-12-15T18:27:53.400Z,0.30
2018-12-15T18:30:21.474Z,0.30
2018-12-15T18:32:49.623Z,0.30
2018-12-15T18:35:17.895Z,0.40
2018-12-15T18:37:45.926Z,0.30
2018-12-15T18:40:13.984Z,0.30
2018-12-15T18:42:42.076Z,0.30
2018-12-15T18:45:10.274Z,0.30
2018-12-15T18:47:38.344Z,0.30
2018-12-15T18:50:07.674Z,0.40
2018-12-15T18:52:35.736Z,0.40
2018-12-15T18:55:04.536Z,0.40
2018-12-15T18:57:32.595Z,0.40
2018-12-15T19:00:00.659Z,0.30
2018-12-15T19:02:28.727Z,0.40
2018-12-15T19:04:56.843Z,0.30
2018-12-15T19:07:25.009Z,0.30
2018-12-15T19:09:53.187Z,0.30
2018-12-15T19:12:21.809Z,0.30
2018-12-15T19:14:50.013Z,0.30
2018-12-15T19:17:18.140Z,0.30
2018-12-15T19:19:46.254Z,0.30
2018-12-15T19:22:14.286Z,0.30
2018-12-15T19:24:42.376Z,0.30
2018-12-15T19:27:10.487Z,0.30
2018-12-15T19:29:38.530Z,0.30
2018-12-15T19:32:06.590Z,0.30
2018-12-15T19:34:34.702Z,0.30
2018-12-15T19:37:02.777Z,0.30
2018-12-15T19:39:30.848Z,0.30
2018-12-15T19:41:58.905Z,0.30
2018-12-15T19:44:26.986Z,0.30
2018-12-15T19:46:55.067Z,0.30
2018-12-15T19:49:23.130Z,0.40
2018-12-15T19:51:51.269Z,0.30
2018-12-15T19:54:19.309Z,0.30
2018-12-15T19:56:47.420Z,0.40
2018-12-15T19:59:15.590Z,0.40
2018-12-15T20:01:43.658Z,0.40
2018-12-15T20:04:11.819Z,0.30
2018-12-15T20:06:39.844Z,0.40
2018-12-15T20:09:08.002Z,0.40
2018-12-15T20:11:36.119Z,0.40
2018-12-15T20:14:04.176Z,0.40
2018-12-15T20:16:32.445Z,0.40
2018-12-15T20:19:00.574Z,0.40
2018-12-15T20:21:28.656Z,0.40
2018-12-15T20:23:56.748Z,0.40
2018-12-15T20:26:24.948Z,0.40
2018-12-15T20:28:53.081Z,0.30
2018-12-15T20:31:21.142Z,0.40
2018-12-15T20:33:49.221Z,0.30
2018-12-15T20:36:17.291Z,0.40
2018-12-15T20:38:45.377Z,0.30
2018-12-15T20:41:13.448Z,0.30
2018-12-15T20:43:41.604Z,0.30
2018-12-15T20:46:09.778Z,0.30
2018-12-15T20:48:37.852Z,0.30
2018-12-15T20:51:05.920Z,0.30
2018-12-15T20:53:34.011Z,0.30
2018-12-15T20:56:02.098Z,0.30
2018-12-15T20:58:30.181Z,0.30
2018-12-15T21:00:58.381Z,0.30
2018-12-15T21:03:26.447Z,0.30
2018-12-15T21:05:54.518Z,0.30
2018-12-15T21:08:22.599Z,0.30
2018-12-15T21:10:50.706Z,0.30
2018-12-15T21:13:18.824Z,0.30
2018-12-15T21:15:48.925Z,0.30
2018-12-15T21:18:16.990Z,0.30
2018-12-15T21:20:45.085Z,0.30
2018-12-15T21:23:13.239Z,0.30
2018-12-15T21:25:41.304Z,0.30
2018-12-15T21:28:09.380Z,0.30
2018-12-15T21:30:37.555Z,0.30
2018-12-15T21:33:05.583Z,0.30
2018-12-15T21:35:33.659Z,0.20
2018-12-15T21:38:01.713Z,0.20
2018-12-15T21:40:29.790Z,0.20
2018-12-15T21:42:57.954Z,0.20
2018-12-15T21:45:25.979Z,0.20
2018-12-15T21:47:57.593Z,0.20
2018-12-15T21:50:24.127Z,0.20
2018-12-15T21:52:52.283Z,0.20
2018-12-15T21:55:20.355Z,0.20
2018-12-15T21:57:48.426Z,0.20
2018-12-15T22:00:16.493Z,0.20
2018-12-15T22:02:44.617Z,0.10
2018-12-15T22:05:12.695Z,0.10
2018-12-15T22:07:40.968Z,0.10
2018-12-15T22:10:09.247Z,0.10
2018-12-15T22:12:37.301Z,0.10
2018-12-15T22:15:05.818Z,0.10
2018-12-15T22:17:33.991Z,0.10
2018-12-15T22:20:02.267Z,0.20
2018-12-15T22:22:30.351Z,0.20
2018-12-15T22:24:58.463Z,0.10
2018-12-15T22:27:26.549Z,0.10
2018-12-15T22:29:54.642Z,0.10
2018-12-15T22:32:23.561Z,0.10
2018-12-15T22:34:51.657Z,0.10
2018-12-15T22:37:19.780Z,0.10
2018-12-15T22:39:47.928Z,0.10
2018-12-15T22:42:16.108Z,0.10
2018-12-15T22:44:44.196Z,0.10
2018-12-15T22:47:12.351Z,0.10
2018-12-15T22:49:40.581Z,0.10
2018-12-15T22:52:09.892Z,0.10
2018-12-15T22:54:38.236Z,0.10
2018-12-15T22:57:06.300Z,0.10
2018-12-15T22:59:34.472Z,0.00
2018-12-15T23:02:02.647Z,0.00
2018-12-15T23:04:30.761Z,0.00
2018-12-15T23:06:58.821Z,-0.10
2018-12-15T23:09:27.006Z,-0.20
2018-12-15T23:11:55.187Z,-0.30
2018-12-15T23:14:23.212Z,-0.40
2018-12-15T23:16:51.338Z,-0.50
2018-12-15T23:19:19.413Z,-0.60
2018-12-15T23:21:47.482Z,-0.70
2018-12-15T23:26:50.103Z,-0.80
2018-12-15T23:29:18.217Z,-0.80
2018-12-15T23:31:46.285Z,-0.90
2018-12-15T23:34:14.351Z,-0.90
2018-12-15T23:36:42.556Z,-1.00
2018-12-15T23:39:10.594Z,-1.00
2018-12-15T23:41:38.668Z,-1.00
2018-12-15T23:44:06.837Z,-1.00
2018-12-15T23:46:34.948Z,-1.00
2018-12-15T23:49:03.023Z,-1.10
2018-12-15T23:51:31.262Z,-1.10
2018-12-15T23:53:59.314Z,-1.10
2018-12-15T23:56:27.393Z,-1.10
2018-12-15T23:58:55.460Z,-1.10
